Flight Information

DEPARTURE
RENO, NV
Elevation:
4414
Runways:
7/25 - 6102x150 - CONC-G
16L/34R - 9000x150 - CONC-G
16R/34L - 11001x150 - CONC-G
ATIS:
135.8 775-348-1550
Clearance Delivery:
124.9
Ground:
121.9
Tower:
RENO TOWER 118.7
DESTINATION
,
Elevation:
TPA:
1000 (est.)


6751.3 NM70° True-16° Var53° HDG

Flight Plan:
(click to file on line)

1. Type
2. Aircraft Identification
3. Aircraft Type / Special Equipment
4. True Airspeed
kts
5. Departure Airport
(ICAO code)
6. Arriving Airport
(ICAO code)
7. Cruising Altitude
ft
8. Alternate Airport
(ICAO code)
9. Route of Flight
10. Remarks


00:00:00 Departure ATIS: Destination ATIS:

Clearance Limit:
Route:
Altitude: Expect in minutes
Frequency:
Transponder: (7500 Hijack / 7600 Lost Comms / 7700 Emergency)


KRNO 010655Z VRB06G17KT 10SM SCT060 11/M01 A2994 RMK AO2 SLP111 T01061011
Time: 2020-04-01T06:55:00Z
1585725241
Winds: variable
Gusting:17 kts
Visibility: 10.0 sm
Clouds (AGL): SCT 6000
Temperature: 10.6 C
Dew Point: -1.1 C
Pressure: 29.940945 in Hgbr


Notes:

Data extracted from FAA Digital Chart Supplement. Effective: 0901Z Thursday, Mar 26, 2020 to 0901Z Thursday, May 21, 2020
Current ATIS data is provided courtisy of PilotEdge.